FIN842 ESSA-EFHK
Flight info
| Callsign | FIN842 |
|---|---|
| Flight time | 0h 39m |
| Altitude | 39000 |
| Route | TOVRI5C TOVRI N851 RIKUM DCT RIRIP Y364 LAKUT LAKUT9B |
| Aircraft | A310/H-SDFGHIM1RTUWXY/LB1 |
Departure
| Time | 2026-04-20 14:55 |
|---|---|
| Airport | Stockholm-Arlanda Airport (ESSA) |
Arrival
| Time | 2026-04-20 15:35 |
|---|---|
| Airport | Helsinki Vantaa Airport (EFHK) |
| Time | Latitude | Longitude | Altitude | Speed | Heading |
|---|---|---|---|---|---|
| 2026-04-20 14:33 | 59.65376 | 17.93133 | 143 ft | 0 kts | 224° |
| 2026-04-20 14:44 | 59.65379 | 17.93138 | 143 ft | 0 kts | 224° |
| 2026-04-20 14:44 | 59.65383 | 17.93146 | 143 ft | 3 kts | 220° |
| 2026-04-20 14:45 | 59.65396 | 17.93174 | 143 ft | 3 kts | 249° |
| 2026-04-20 14:45 | 59.65400 | 17.93211 | 143 ft | 3 kts | 272° |
| 2026-04-20 14:45 | 59.65395 | 17.93249 | 143 ft | 3 kts | 307° |
| 2026-04-20 14:45 | 59.65384 | 17.93271 | 143 ft | 0 kts | 336° |
| 2026-04-20 14:49 | 59.65397 | 17.93262 | 143 ft | 5 kts | 341° |
| 2026-04-20 14:49 | 59.65453 | 17.93210 | 143 ft | 10 kts | 336° |
| 2026-04-20 14:50 | 59.65518 | 17.93169 | 143 ft | 10 kts | 345° |
| 2026-04-20 14:50 | 59.65567 | 17.93110 | 143 ft | 8 kts | 298° |
| 2026-04-20 14:50 | 59.65562 | 17.92882 | 143 ft | 21 kts | 257° |
| 2026-04-20 14:50 | 59.65522 | 17.92593 | 143 ft | 22 kts | 247° |
| 2026-04-20 14:51 | 59.65431 | 17.92355 | 144 ft | 22 kts | 221° |
| 2026-04-20 14:51 | 59.65309 | 17.92291 | 144 ft | 4 kts | 151° |
| 2026-04-20 14:51 | 59.65282 | 17.92275 | 144 ft | 11 kts | 201° |
| 2026-04-20 14:51 | 59.65164 | 17.92215 | 144 ft | 25 kts | 192° |
| 2026-04-20 14:52 | 59.64988 | 17.92149 | 144 ft | 26 kts | 191° |
| 2026-04-20 14:52 | 59.64810 | 17.92081 | 144 ft | 26 kts | 193° |
| 2026-04-20 14:52 | 59.64630 | 17.92014 | 144 ft | 26 kts | 192° |
| 2026-04-20 14:52 | 59.64452 | 17.91941 | 144 ft | 19 kts | 197° |
| 2026-04-20 14:53 | 59.64419 | 17.91902 | 144 ft | 0 kts | 231° |
| 2026-04-20 14:53 | 59.64414 | 17.91872 | 144 ft | 9 kts | 256° |
| 2026-04-20 14:53 | 59.64422 | 17.91692 | 147 ft | 14 kts | 277° |
| 2026-04-20 14:53 | 59.64457 | 17.91591 | 149 ft | 5 kts | 6° |
| 2026-04-20 14:54 | 59.64460 | 17.91592 | 149 ft | 0 kts | 9° |
| 2026-04-20 14:54 | 59.64461 | 17.91592 | 149 ft | 0 kts | 9° |
| 2026-04-20 14:54 | 59.64500 | 17.91602 | 150 ft | 26 kts | 8° |
| 2026-04-20 14:55 | 59.64972 | 17.91773 | 149 ft | 113 kts | 11° |
| 2026-04-20 14:55 | 59.66011 | 17.92145 | 207 ft | 184 kts | 10° |
| 2026-04-20 14:55 | 59.67374 | 17.92615 | 956 ft | 198 kts | 11° |
| 2026-04-20 14:55 | 59.68704 | 17.93087 | 2201 ft | 202 kts | 11° |
| 2026-04-20 14:56 | 59.70135 | 17.93619 | 3183 ft | 215 kts | 12° |
| 2026-04-20 14:56 | 59.71651 | 17.94213 | 4179 ft | 231 kts | 12° |
| 2026-04-20 14:56 | 59.73282 | 17.94999 | 4630 ft | 247 kts | 25° |
| 2026-04-20 14:56 | 59.74587 | 17.97239 | 4818 ft | 254 kts | 57° |
| 2026-04-20 14:57 | 59.75073 | 18.00612 | 4974 ft | 260 kts | 82° |
| 2026-04-20 14:57 | 59.75169 | 18.04229 | 4977 ft | 264 kts | 85° |
| 2026-04-20 14:57 | 59.75227 | 18.08010 | 5589 ft | 286 kts | 85° |
| 2026-04-20 14:57 | 59.75262 | 18.11961 | 7218 ft | 294 kts | 86° |
| 2026-04-20 14:58 | 59.75277 | 18.16075 | 8820 ft | 303 kts | 87° |
| 2026-04-20 14:58 | 59.75275 | 18.20294 | 10461 ft | 308 kts | 87° |
| 2026-04-20 14:58 | 59.75268 | 18.24571 | 11971 ft | 312 kts | 88° |
| 2026-04-20 14:58 | 59.75243 | 18.28923 | 13391 ft | 319 kts | 88° |
| 2026-04-20 14:59 | 59.75223 | 18.33368 | 14668 ft | 326 kts | 88° |
| 2026-04-20 14:59 | 59.75206 | 18.37903 | 15859 ft | 332 kts | 88° |
| 2026-04-20 14:59 | 59.75192 | 18.42523 | 17023 ft | 338 kts | 88° |
| 2026-04-20 14:59 | 59.75185 | 18.47252 | 18194 ft | 344 kts | 88° |
| 2026-04-20 15:00 | 59.75173 | 18.51999 | 19218 ft | 349 kts | 89° |
| 2026-04-20 15:00 | 59.75137 | 18.56783 | 20179 ft | 353 kts | 89° |
| 2026-04-20 15:00 | 59.75112 | 18.61679 | 21137 ft | 357 kts | 89° |
| 2026-04-20 15:00 | 59.75086 | 18.66634 | 22066 ft | 362 kts | 89° |
| 2026-04-20 15:01 | 59.75054 | 18.71662 | 22974 ft | 366 kts | 89° |
| 2026-04-20 15:01 | 59.75084 | 18.76727 | 23853 ft | 369 kts | 81° |
| 2026-04-20 15:01 | 59.75951 | 18.81486 | 24596 ft | 372 kts | 58° |
| 2026-04-20 15:01 | 59.77541 | 18.85568 | 25264 ft | 378 kts | 51° |
| 2026-04-20 15:02 | 59.79258 | 18.89608 | 25768 ft | 385 kts | 52° |
| 2026-04-20 15:02 | 59.80900 | 18.93804 | 26595 ft | 384 kts | 54° |
| 2026-04-20 15:02 | 59.82439 | 18.98044 | 27447 ft | 382 kts | 56° |
| 2026-04-20 15:02 | 59.83945 | 19.02363 | 28313 ft | 380 kts | 56° |
| 2026-04-20 15:03 | 59.85442 | 19.06689 | 29169 ft | 378 kts | 56° |
| 2026-04-20 15:03 | 59.86927 | 19.10979 | 29996 ft | 376 kts | 56° |
| 2026-04-20 15:03 | 59.88410 | 19.15255 | 30756 ft | 374 kts | 56° |
| 2026-04-20 15:03 | 59.89873 | 19.19522 | 31414 ft | 372 kts | 57° |
| 2026-04-20 15:04 | 59.91319 | 19.23788 | 32055 ft | 371 kts | 57° |
| 2026-04-20 15:04 | 59.92750 | 19.27965 | 32678 ft | 369 kts | 57° |
| 2026-04-20 15:04 | 59.94190 | 19.32197 | 33281 ft | 368 kts | 57° |
| 2026-04-20 15:04 | 59.95629 | 19.36422 | 33884 ft | 367 kts | 57° |
| 2026-04-20 15:05 | 59.97054 | 19.40633 | 34446 ft | 366 kts | 59° |
| 2026-04-20 15:05 | 59.98072 | 19.45234 | 34890 ft | 363 kts | 75° |
| 2026-04-20 15:05 | 59.98580 | 19.50180 | 35243 ft | 365 kts | 79° |
| 2026-04-20 15:05 | 59.99017 | 19.55185 | 35598 ft | 366 kts | 78° |
| 2026-04-20 15:06 | 59.99521 | 19.60185 | 35911 ft | 369 kts | 77° |
| 2026-04-20 15:06 | 60.00088 | 19.65208 | 35897 ft | 381 kts | 76° |
| 2026-04-20 15:06 | 60.00724 | 19.70422 | 35897 ft | 392 kts | 75° |
| 2026-04-20 15:07 | 60.02033 | 19.81262 | 36221 ft | 406 kts | 76° |
| 2026-04-20 15:07 | 60.02701 | 19.86759 | 36570 ft | 409 kts | 76° |
| 2026-04-20 15:07 | 60.03365 | 19.92304 | 36936 ft | 410 kts | 76° |
| 2026-04-20 15:07 | 60.04031 | 19.97826 | 37604 ft | 402 kts | 76° |
| 2026-04-20 15:08 | 60.04681 | 20.03223 | 38210 ft | 400 kts | 75° |
| 2026-04-20 15:08 | 60.05326 | 20.08633 | 38533 ft | 401 kts | 76° |
| 2026-04-20 15:08 | 60.05960 | 20.14023 | 38756 ft | 404 kts | 75° |
| 2026-04-20 15:08 | 60.06611 | 20.19518 | 39025 ft | 407 kts | 76° |
| 2026-04-20 15:09 | 60.07256 | 20.25066 | 39180 ft | 411 kts | 76° |
| 2026-04-20 15:09 | 60.08556 | 20.36287 | 39376 ft | 414 kts | 76° |
| 2026-04-20 15:10 | 60.09855 | 20.47612 | 39382 ft | 422 kts | 76° |
| 2026-04-20 15:10 | 60.11187 | 20.59318 | 39399 ft | 439 kts | 76° |
| 2026-04-20 15:11 | 60.12553 | 20.71398 | 39376 ft | 450 kts | 76° |
| 2026-04-20 15:11 | 60.13916 | 20.83613 | 39391 ft | 449 kts | 76° |
| 2026-04-20 15:12 | 60.15275 | 20.95886 | 39374 ft | 453 kts | 76° |
| 2026-04-20 15:12 | 60.16640 | 21.08269 | 39376 ft | 454 kts | 76° |
| 2026-04-20 15:13 | 60.17974 | 21.20582 | 39363 ft | 455 kts | 76° |
| 2026-04-20 15:13 | 60.19318 | 21.33006 | 39366 ft | 455 kts | 77° |
| 2026-04-20 15:14 | 60.20631 | 21.45448 | 39369 ft | 455 kts | 77° |
| 2026-04-20 15:14 | 60.21857 | 21.57912 | 39357 ft | 455 kts | 77° |
| 2026-04-20 15:15 | 60.23144 | 21.70290 | 39350 ft | 455 kts | 77° |
| 2026-04-20 15:15 | 60.24431 | 21.82732 | 39347 ft | 454 kts | 77° |
| 2026-04-20 15:16 | 60.25720 | 21.95187 | 39337 ft | 454 kts | 77° |
| 2026-04-20 15:16 | 60.26989 | 22.07639 | 39332 ft | 454 kts | 77° |
| 2026-04-20 15:17 | 60.28182 | 22.20028 | 39328 ft | 454 kts | 82° |
| 2026-04-20 15:17 | 60.28332 | 22.32733 | 39321 ft | 450 kts | 90° |
| 2026-04-20 15:17 | 60.28246 | 22.38987 | 39002 ft | 444 kts | 89° |
| 2026-04-20 15:18 | 60.28200 | 22.45182 | 38398 ft | 441 kts | 88° |
| 2026-04-20 15:18 | 60.28199 | 22.51332 | 37778 ft | 438 kts | 88° |
| 2026-04-20 15:18 | 60.28210 | 22.57431 | 36991 ft | 434 kts | 88° |
| 2026-04-20 15:18 | 60.28195 | 22.63475 | 36484 ft | 429 kts | 88° |
| 2026-04-20 15:19 | 60.28225 | 22.69473 | 35762 ft | 427 kts | 87° |
| 2026-04-20 15:19 | 60.28536 | 22.75328 | 35223 ft | 420 kts | 75° |
| 2026-04-20 15:19 | 60.29447 | 22.80836 | 34494 ft | 419 kts | 70° |
| 2026-04-20 15:19 | 60.30455 | 22.86311 | 33688 ft | 416 kts | 71° |
| 2026-04-20 15:20 | 60.31349 | 22.91870 | 32660 ft | 416 kts | 73° |
| 2026-04-20 15:20 | 60.32133 | 22.97489 | 31626 ft | 416 kts | 75° |
| 2026-04-20 15:20 | 60.32873 | 23.03144 | 30543 ft | 417 kts | 75° |
| 2026-04-20 15:20 | 60.33606 | 23.08822 | 29164 ft | 419 kts | 75° |
| 2026-04-20 15:21 | 60.34368 | 23.14540 | 27632 ft | 425 kts | 74° |
| 2026-04-20 15:21 | 60.35151 | 23.20336 | 26087 ft | 430 kts | 74° |
| 2026-04-20 15:21 | 60.35926 | 23.26093 | 24973 ft | 429 kts | 74° |
| 2026-04-20 15:21 | 60.36695 | 23.31876 | 23938 ft | 424 kts | 74° |
| 2026-04-20 15:22 | 60.37444 | 23.37597 | 22881 ft | 417 kts | 74° |
| 2026-04-20 15:22 | 60.38175 | 23.43185 | 21898 ft | 407 kts | 74° |
| 2026-04-20 15:22 | 60.38888 | 23.48659 | 20391 ft | 398 kts | 75° |
| 2026-04-20 15:22 | 60.39579 | 23.54013 | 18918 ft | 389 kts | 74° |
| 2026-04-20 15:23 | 60.40250 | 23.59252 | 17388 ft | 380 kts | 74° |
| 2026-04-20 15:23 | 60.40897 | 23.64367 | 15946 ft | 370 kts | 75° |
| 2026-04-20 15:23 | 60.41528 | 23.69347 | 14575 ft | 361 kts | 74° |
| 2026-04-20 15:23 | 60.42022 | 23.74203 | 13148 ft | 355 kts | 82° |
| 2026-04-20 15:24 | 60.42167 | 23.79152 | 11775 ft | 348 kts | 86° |
| 2026-04-20 15:24 | 60.42229 | 23.83997 | 10496 ft | 340 kts | 86° |
| 2026-04-20 15:24 | 60.42291 | 23.88735 | 9141 ft | 333 kts | 86° |
| 2026-04-20 15:24 | 60.42375 | 23.93365 | 7883 ft | 326 kts | 86° |
| 2026-04-20 15:25 | 60.42475 | 23.97910 | 6396 ft | 324 kts | 85° |
| 2026-04-20 15:25 | 60.42524 | 24.02528 | 4752 ft | 330 kts | 95° |
| 2026-04-20 15:25 | 60.41730 | 24.06739 | 3683 ft | 323 kts | 122° |
| 2026-04-20 15:25 | 60.40349 | 24.10171 | 2949 ft | 306 kts | 128° |
| 2026-04-20 15:26 | 60.39015 | 24.13410 | 2590 ft | 295 kts | 126° |
| 2026-04-20 15:26 | 60.37832 | 24.16511 | 2406 ft | 258 kts | 123° |
| 2026-04-20 15:26 | 60.36846 | 24.19260 | 2324 ft | 231 kts | 122° |
| 2026-04-20 15:26 | 60.35951 | 24.21834 | 2317 ft | 217 kts | 121° |
| 2026-04-20 15:27 | 60.35094 | 24.24363 | 2337 ft | 217 kts | 120° |
| 2026-04-20 15:27 | 60.34235 | 24.26894 | 2336 ft | 217 kts | 121° |
| 2026-04-20 15:27 | 60.33380 | 24.29425 | 2324 ft | 218 kts | 121° |
| 2026-04-20 15:27 | 60.32523 | 24.31963 | 2317 ft | 217 kts | 121° |
| 2026-04-20 15:28 | 60.31699 | 24.34410 | 2323 ft | 209 kts | 120° |
| 2026-04-20 15:28 | 60.30902 | 24.36778 | 2347 ft | 209 kts | 121° |
| 2026-04-20 15:28 | 60.30040 | 24.39346 | 2327 ft | 219 kts | 121° |
| 2026-04-20 15:28 | 60.29202 | 24.41847 | 2325 ft | 219 kts | 121° |
| 2026-04-20 15:29 | 60.28348 | 24.44348 | 2323 ft | 217 kts | 121° |
| 2026-04-20 15:29 | 60.27502 | 24.46862 | 2299 ft | 215 kts | 121° |
| 2026-04-20 15:29 | 60.26650 | 24.49367 | 2313 ft | 218 kts | 121° |
| 2026-04-20 15:29 | 60.25796 | 24.51893 | 2338 ft | 217 kts | 120° |
| 2026-04-20 15:30 | 60.24942 | 24.54419 | 2309 ft | 218 kts | 120° |
| 2026-04-20 15:30 | 60.24091 | 24.56935 | 2326 ft | 218 kts | 121° |
| 2026-04-20 15:30 | 60.23239 | 24.59447 | 2321 ft | 219 kts | 121° |
| 2026-04-20 15:30 | 60.22378 | 24.61962 | 2319 ft | 218 kts | 121° |
| 2026-04-20 15:31 | 60.21529 | 24.64484 | 2334 ft | 217 kts | 117° |
| 2026-04-20 15:31 | 60.21270 | 24.67280 | 2330 ft | 204 kts | 73° |
| 2026-04-20 15:31 | 60.21894 | 24.69626 | 2319 ft | 183 kts | 51° |
| 2026-04-20 15:31 | 60.22713 | 24.71579 | 2325 ft | 184 kts | 44° |
| 2026-04-20 15:32 | 60.23583 | 24.73457 | 2308 ft | 185 kts | 45° |
| 2026-04-20 15:32 | 60.24442 | 24.75336 | 2327 ft | 184 kts | 45° |
| 2026-04-20 15:32 | 60.25308 | 24.77228 | 2284 ft | 185 kts | 45° |
| 2026-04-20 15:32 | 60.26179 | 24.79140 | 1782 ft | 185 kts | 46° |
| 2026-04-20 15:33 | 60.27009 | 24.80973 | 1465 ft | 171 kts | 45° |
| 2026-04-20 15:33 | 60.27807 | 24.82719 | 1182 ft | 164 kts | 46° |
| 2026-04-20 15:33 | 60.28543 | 24.84333 | 957 ft | 151 kts | 44° |
| 2026-04-20 15:33 | 60.29237 | 24.85858 | 760 ft | 142 kts | 45° |
| 2026-04-20 15:34 | 60.29880 | 24.87274 | 578 ft | 137 kts | 44° |
| 2026-04-20 15:34 | 60.30519 | 24.88672 | 409 ft | 136 kts | 44° |
| 2026-04-20 15:34 | 60.31158 | 24.90092 | 214 ft | 134 kts | 43° |
| 2026-04-20 15:34 | 60.31748 | 24.91377 | 161 ft | 105 kts | 47° |
| 2026-04-20 15:35 | 60.32135 | 24.92238 | 170 ft | 60 kts | 52° |
| 2026-04-20 15:35 | 60.32336 | 24.92736 | 174 ft | 40 kts | 49° |
| 2026-04-20 15:35 | 60.32447 | 24.93152 | 180 ft | 26 kts | 75° |
| 2026-04-20 15:35 | 60.32491 | 24.93496 | 182 ft | 25 kts | 77° |
| 2026-04-20 15:36 | 60.32532 | 24.93841 | 183 ft | 26 kts | 71° |
| 2026-04-20 15:36 | 60.32632 | 24.94122 | 192 ft | 24 kts | 47° |
| 2026-04-20 15:36 | 60.32742 | 24.94370 | 198 ft | 23 kts | 45° |
| 2026-04-20 15:36 | 60.32851 | 24.94602 | 192 ft | 22 kts | 48° |
| 2026-04-20 15:37 | 60.32920 | 24.94833 | 199 ft | 14 kts | 106° |
| 2026-04-20 15:37 | 60.32848 | 24.94951 | 196 ft | 15 kts | 153° |
| 2026-04-20 15:37 | 60.32742 | 24.95010 | 190 ft | 18 kts | 174° |
| 2026-04-20 15:37 | 60.32623 | 24.95093 | 180 ft | 21 kts | 160° |
| 2026-04-20 15:38 | 60.32468 | 24.95199 | 175 ft | 26 kts | 162° |
| 2026-04-20 15:38 | 60.32297 | 24.95350 | 171 ft | 25 kts | 142° |
| 2026-04-20 15:38 | 60.32213 | 24.95501 | 170 ft | 1 kts | 137° |
| 2026-04-20 15:38 | 60.32203 | 24.95520 | 169 ft | 0 kts | 137° |
| 2026-04-20 15:39 | 60.32202 | 24.95522 | 169 ft | 1 kts | 137° |
| 2026-04-20 15:39 | 60.32190 | 24.95544 | 169 ft | 4 kts | 138° |
| 2026-04-20 15:39 | 60.32177 | 24.95566 | 169 ft | 8 kts | 138° |
| 2026-04-20 15:39 | 60.32105 | 24.95698 | 168 ft | 18 kts | 136° |
| 2026-04-20 15:40 | 60.32010 | 24.95876 | 169 ft | 20 kts | 138° |
| 2026-04-20 15:40 | 60.31910 | 24.96059 | 170 ft | 15 kts | 139° |
| 2026-04-20 15:40 | 60.31852 | 24.96124 | 170 ft | 5 kts | 178° |
| 2026-04-20 15:40 | 60.31824 | 24.96111 | 170 ft | 2 kts | 210° |
| 2026-04-20 15:41 | 60.31787 | 24.96041 | 170 ft | 11 kts | 226° |
| 2026-04-20 15:41 | 60.31731 | 24.95929 | 169 ft | 9 kts | 209° |
| 2026-04-20 15:41 | 60.31708 | 24.95943 | 169 ft | 2 kts | 118° |
| 2026-04-20 15:41 | 60.31696 | 24.95979 | 169 ft | 4 kts | 123° |
| 2026-04-20 15:42 | 60.31678 | 24.96028 | 170 ft | 5 kts | 132° |
| 2026-04-20 15:42 | 60.31661 | 24.96058 | 170 ft | 0 kts | 138° |
| 2026-04-20 15:42 | 60.31660 | 24.96059 | 170 ft | 0 kts | 138° |